createdAt,value
2018-08-24T00:00:01.916Z,20.78
2018-08-24T00:01:01.911Z,20.88
2018-08-24T00:02:01.909Z,20.71
2018-08-24T00:03:01.970Z,20.85
2018-08-24T00:04:01.906Z,20.88
2018-08-24T00:05:01.901Z,20.90
2018-08-24T00:06:01.898Z,20.91
2018-08-24T00:07:01.902Z,20.85
2018-08-24T00:08:01.893Z,20.87
2018-08-24T00:09:01.900Z,20.93
2018-08-24T00:10:01.890Z,20.88
2018-08-24T00:11:01.882Z,20.83
2018-08-24T00:12:01.880Z,20.96
2018-08-24T00:13:01.943Z,20.87
2018-08-24T00:14:01.880Z,20.85
2018-08-24T00:15:01.876Z,20.85
2018-08-24T00:16:01.871Z,20.76
2018-08-24T00:17:01.877Z,20.73
2018-08-24T00:18:01.869Z,20.78
2018-08-24T00:19:01.859Z,20.88
2018-08-24T00:20:01.870Z,20.90
2018-08-24T00:21:01.854Z,20.88
2018-08-24T00:22:01.851Z,20.88
2018-08-24T00:23:01.909Z,20.83
2018-08-24T00:24:01.844Z,20.83
2018-08-24T00:25:01.845Z,20.82
2018-08-24T00:26:01.839Z,20.88
2018-08-24T00:27:01.838Z,20.91
2018-08-24T00:28:01.832Z,20.93
2018-08-24T00:29:01.834Z,20.94
2018-08-24T00:30:01.825Z,21.05
2018-08-24T00:31:01.826Z,21.05
2018-08-24T00:32:01.819Z,21.11
2018-08-24T00:33:01.863Z,21.09
2018-08-24T00:34:01.815Z,21.05
2018-08-24T00:35:01.810Z,21.05
2018-08-24T00:36:01.807Z,21.11
2018-08-24T00:37:01.811Z,21.08
2018-08-24T00:38:01.803Z,20.98
2018-08-24T00:39:01.803Z,20.97
2018-08-24T00:40:01.801Z,20.96
2018-08-24T00:41:01.790Z,20.96
2018-08-24T00:42:01.790Z,20.88
2018-08-24T00:43:01.845Z,20.91
2018-08-24T00:44:01.787Z,20.85
2018-08-24T00:45:01.781Z,20.73
2018-08-24T00:46:01.780Z,20.64
2018-08-24T00:47:01.777Z,20.61
2018-08-24T00:48:01.770Z,20.72
2018-08-24T00:49:01.765Z,20.61
2018-08-24T00:50:01.771Z,20.68
2018-08-24T00:51:01.760Z,20.64
2018-08-24T00:52:01.758Z,20.56
2018-08-24T00:53:01.813Z,20.57
2018-08-24T00:54:01.756Z,20.54
2018-08-24T00:55:01.747Z,20.63
2018-08-24T00:56:01.748Z,20.61
2018-08-24T00:57:01.764Z,20.53
2018-08-24T00:58:01.740Z,20.56
2018-08-24T00:59:01.739Z,20.46
2018-08-24T01:00:01.784Z,20.53
2018-08-24T01:01:01.729Z,20.40
2018-08-24T01:02:01.724Z,20.38
2018-08-24T01:03:01.781Z,20.34
2018-08-24T01:04:01.729Z,20.30
2018-08-24T01:05:01.720Z,20.26
2018-08-24T01:06:01.716Z,20.13
2018-08-24T01:07:01.715Z,20.13
2018-08-24T01:08:01.704Z,19.97
2018-08-24T01:09:01.710Z,20.04
2018-08-24T01:10:01.702Z,20.02
2018-08-24T01:11:01.699Z,20.02
2018-08-24T01:12:01.696Z,20.07
2018-08-24T01:13:01.753Z,19.92
2018-08-24T01:14:01.689Z,20.01
2018-08-24T01:15:01.685Z,20.05
2018-08-24T01:16:01.682Z,19.92
2018-08-24T01:17:01.677Z,20.10
2018-08-24T01:18:01.671Z,20.04
2018-08-24T01:19:01.672Z,20.00
2018-08-24T01:20:01.673Z,19.97
2018-08-24T01:21:01.668Z,20.02
2018-08-24T01:22:01.664Z,20.10
2018-08-24T01:23:01.724Z,20.13
2018-08-24T01:24:01.656Z,20.10
2018-08-24T01:25:01.653Z,20.07
2018-08-24T01:26:01.645Z,19.97
2018-08-24T01:27:01.642Z,19.92
2018-08-24T01:28:01.646Z,19.85
2018-08-24T01:29:01.636Z,19.94
2018-08-24T01:30:01.632Z,19.87
2018-08-24T01:31:01.664Z,19.85
2018-08-24T01:32:01.651Z,19.82
2018-08-24T01:33:01.687Z,19.78
2018-08-24T01:34:01.626Z,19.78
2018-08-24T01:35:01.618Z,19.75
2018-08-24T01:36:01.613Z,19.68
2018-08-24T01:37:01.607Z,19.75
2018-08-24T01:38:01.605Z,19.67
2018-08-24T01:39:01.611Z,19.72
2018-08-24T01:40:01.604Z,19.75
2018-08-24T01:41:01.601Z,19.67
2018-08-24T01:42:01.592Z,19.58
2018-08-24T01:43:01.591Z,19.70
2018-08-24T01:44:01.589Z,19.64
2018-08-24T01:45:01.584Z,19.58
2018-08-24T01:46:01.585Z,19.65
2018-08-24T01:47:01.578Z,19.64
2018-08-24T01:48:01.575Z,19.61
2018-08-24T01:49:01.568Z,19.68
2018-08-24T01:50:01.574Z,19.58
2018-08-24T01:51:01.567Z,19.47
2018-08-24T01:52:01.562Z,19.52
2018-08-24T01:53:01.555Z,19.47
2018-08-24T01:54:01.552Z,19.45
2018-08-24T01:55:01.553Z,19.47
2018-08-24T01:56:01.550Z,19.38
2018-08-24T01:57:01.544Z,19.50
2018-08-24T01:58:01.542Z,19.43
2018-08-24T01:59:01.615Z,19.43
2018-08-24T02:00:01.573Z,19.34
2018-08-24T02:01:01.562Z,19.49
2018-08-24T02:02:01.532Z,19.50
2018-08-24T02:03:01.548Z,19.57
2018-08-24T02:04:01.521Z,19.52
2018-08-24T02:05:01.520Z,19.50
2018-08-24T02:06:01.515Z,19.49
2018-08-24T02:07:01.509Z,19.50
2018-08-24T02:08:01.504Z,19.49
2018-08-24T02:09:01.503Z,19.64
2018-08-24T02:10:01.545Z,19.70
2018-08-24T02:11:01.499Z,19.79
2018-08-24T02:12:01.489Z,19.83
2018-08-24T02:13:01.491Z,19.78
2018-08-24T02:14:01.482Z,19.82
2018-08-24T02:15:01.491Z,19.79
2018-08-24T02:16:01.475Z,19.82
2018-08-24T02:17:01.509Z,19.92
2018-08-24T02:18:01.470Z,19.89
2018-08-24T02:19:01.465Z,19.90
2018-08-24T02:20:01.510Z,19.94
2018-08-24T02:21:01.461Z,19.90
2018-08-24T02:22:01.456Z,20.01
2018-08-24T02:23:01.452Z,19.89
2018-08-24T02:24:01.449Z,19.90
2018-08-24T02:25:01.442Z,19.95
2018-08-24T02:26:01.446Z,19.86
2018-08-24T02:27:01.436Z,19.85
2018-08-24T02:28:01.437Z,19.90
2018-08-24T02:29:01.431Z,19.90
2018-08-24T02:30:01.477Z,19.89
2018-08-24T02:31:01.456Z,19.95
2018-08-24T02:32:01.417Z,19.94
2018-08-24T02:33:01.419Z,20.02
2018-08-24T02:34:01.411Z,20.04
2018-08-24T02:35:01.415Z,20.02
2018-08-24T02:36:01.408Z,20.01
2018-08-24T02:37:01.405Z,20.17
2018-08-24T02:38:01.402Z,20.20
2018-08-24T02:39:01.394Z,20.10
2018-08-24T02:40:01.447Z,20.16
2018-08-24T02:41:01.392Z,20.16
2018-08-24T02:42:01.384Z,20.13
2018-08-24T02:43:01.384Z,20.12
2018-08-24T02:44:01.378Z,20.08
2018-08-24T02:45:01.443Z,19.95
2018-08-24T02:46:01.370Z,19.94
2018-08-24T02:47:01.373Z,19.94
2018-08-24T02:48:01.369Z,19.72
2018-08-24T02:49:01.365Z,19.64
2018-08-24T02:50:01.357Z,19.45
2018-08-24T02:51:01.369Z,19.39
2018-08-24T02:52:01.353Z,19.31
2018-08-24T02:53:01.348Z,19.28
2018-08-24T02:54:01.343Z,19.34
2018-08-24T02:55:01.341Z,19.28
2018-08-24T02:56:01.343Z,19.31
2018-08-24T02:57:01.387Z,19.27
2018-08-24T02:58:01.333Z,19.15
2018-08-24T02:59:01.330Z,19.27
2018-08-24T03:00:01.323Z,19.15
2018-08-24T03:01:01.320Z,19.30
2018-08-24T03:02:01.312Z,19.31
2018-08-24T03:03:01.318Z,19.24
2018-08-24T03:04:01.308Z,19.28
2018-08-24T03:05:01.375Z,19.30
2018-08-24T03:06:01.300Z,19.27
2018-08-24T03:07:01.335Z,19.23
2018-08-24T03:08:01.295Z,19.28
2018-08-24T03:09:01.288Z,19.28
2018-08-24T03:10:01.286Z,19.17
2018-08-24T03:11:01.279Z,19.25
2018-08-24T03:12:01.282Z,19.24
2018-08-24T03:13:01.274Z,19.27
2018-08-24T03:14:01.268Z,19.25
2018-08-24T03:15:01.269Z,19.16
2018-08-24T03:16:01.314Z,19.13
2018-08-24T03:17:01.270Z,19.12
2018-08-24T03:18:01.259Z,19.10
2018-08-24T03:19:01.252Z,19.10
2018-08-24T03:20:01.248Z,19.09
2018-08-24T03:21:01.242Z,19.07
2018-08-24T03:22:01.244Z,19.07
2018-08-24T03:23:01.236Z,19.05
2018-08-24T03:24:01.234Z,19.10
2018-08-24T03:25:01.233Z,19.05
2018-08-24T03:26:01.225Z,19.10
2018-08-24T03:27:01.268Z,19.16
2018-08-24T03:28:01.223Z,19.12
2018-08-24T03:29:01.226Z,19.12
2018-08-24T03:30:01.215Z,19.17
2018-08-24T03:31:01.211Z,19.25
2018-08-24T03:32:01.208Z,19.31
2018-08-24T03:33:01.201Z,19.31
2018-08-24T03:34:01.197Z,19.34
2018-08-24T03:35:01.200Z,19.45
2018-08-24T03:36:01.191Z,19.39
2018-08-24T03:37:01.184Z,19.46
2018-08-24T03:38:01.193Z,19.52
2018-08-24T03:39:01.181Z,19.35
2018-08-24T03:40:01.176Z,19.43
2018-08-24T03:41:01.170Z,19.39
2018-08-24T03:42:01.167Z,19.35
2018-08-24T03:43:01.165Z,19.31
2018-08-24T03:44:01.167Z,19.20
2018-08-24T03:45:01.160Z,19.28
2018-08-24T03:46:01.249Z,19.31
2018-08-24T03:47:01.153Z,19.34
2018-08-24T03:48:01.147Z,19.28
2018-08-24T03:49:01.146Z,19.30
2018-08-24T03:50:01.138Z,19.32
2018-08-24T03:51:01.141Z,19.32
2018-08-24T03:52:01.132Z,19.30
2018-08-24T03:53:01.156Z,19.25
2018-08-24T03:54:01.130Z,19.32
2018-08-24T03:55:01.120Z,19.31
2018-08-24T03:56:01.123Z,19.45
2018-08-24T03:57:01.116Z,19.49
2018-08-24T03:58:01.111Z,19.60
2018-08-24T03:59:01.109Z,19.71
2018-08-24T04:00:01.108Z,19.65
2018-08-24T04:01:01.110Z,19.67
2018-08-24T04:02:01.098Z,19.64
2018-08-24T04:03:01.095Z,19.72
2018-08-24T04:04:01.124Z,19.67
2018-08-24T04:05:01.089Z,19.62
2018-08-24T04:06:01.093Z,19.52
2018-08-24T04:07:01.076Z,19.49
2018-08-24T04:08:01.077Z,19.52
2018-08-24T04:09:01.074Z,19.38
2018-08-24T04:10:01.068Z,19.34
2018-08-24T04:11:01.069Z,19.45
2018-08-24T04:12:01.067Z,19.64
2018-08-24T04:13:01.055Z,19.62
2018-08-24T04:14:01.092Z,19.62
2018-08-24T04:15:01.051Z,19.64
2018-08-24T04:16:01.045Z,19.60
2018-08-24T04:17:01.042Z,19.57
2018-08-24T04:18:01.037Z,19.61
2018-08-24T04:19:01.035Z,19.61
2018-08-24T04:20:01.031Z,19.65
2018-08-24T04:21:01.023Z,19.60
2018-08-24T04:22:01.030Z,19.61
2018-08-24T04:23:01.021Z,19.64
2018-08-24T04:24:01.065Z,19.61
2018-08-24T04:25:01.013Z,19.71
2018-08-24T04:26:01.052Z,19.79
2018-08-24T04:27:01.007Z,19.83
2018-08-24T04:28:01.001Z,19.85
2018-08-24T04:29:01.000Z,19.80
2018-08-24T04:30:00.992Z,19.83
2018-08-24T04:31:00.993Z,19.85
2018-08-24T04:32:00.985Z,19.85
2018-08-24T04:33:00.982Z,19.83
2018-08-24T04:34:00.977Z,19.85
2018-08-24T04:35:01.033Z,19.82
2018-08-24T04:36:00.976Z,19.79
2018-08-24T04:37:00.977Z,19.78
2018-08-24T04:38:00.969Z,19.82
2018-08-24T04:39:00.965Z,19.89
2018-08-24T04:40:00.957Z,19.90
2018-08-24T04:41:00.960Z,19.90
2018-08-24T04:42:00.953Z,19.87
2018-08-24T04:43:00.951Z,19.87
2018-08-24T04:44:00.945Z,19.87
2018-08-24T04:45:00.944Z,19.90
2018-08-24T04:46:00.940Z,19.94
2018-08-24T04:47:00.934Z,19.87
2018-08-24T04:48:00.933Z,19.85
2018-08-24T04:49:00.928Z,19.86
2018-08-24T04:50:00.923Z,19.94
2018-08-24T04:51:00.946Z,19.87
2018-08-24T04:52:00.915Z,19.85
2018-08-24T04:53:00.914Z,19.85
2018-08-24T04:54:00.911Z,19.79
2018-08-24T04:55:00.905Z,19.76
2018-08-24T04:56:00.910Z,19.78
2018-08-24T04:57:00.900Z,19.78
2018-08-24T04:58:00.893Z,19.75
2018-08-24T04:59:00.887Z,19.72
2018-08-24T05:00:00.882Z,19.64
2018-08-24T05:01:00.904Z,19.61
2018-08-24T05:02:00.882Z,19.62
2018-08-24T05:03:00.872Z,19.67
2018-08-24T05:04:00.875Z,19.68
2018-08-24T05:05:00.873Z,19.67
2018-08-24T05:06:00.865Z,19.65
2018-08-24T05:07:00.859Z,19.68
2018-08-24T05:08:00.888Z,19.64
2018-08-24T05:09:00.857Z,19.62
2018-08-24T05:10:00.850Z,19.71
2018-08-24T05:11:00.854Z,19.76
2018-08-24T05:12:00.853Z,19.68
2018-08-24T05:13:00.842Z,19.82
2018-08-24T05:14:00.846Z,19.86
2018-08-24T05:15:00.836Z,19.89
2018-08-24T05:16:00.833Z,19.92
2018-08-24T05:17:00.829Z,19.92
2018-08-24T05:18:00.829Z,19.87
2018-08-24T05:19:00.826Z,19.87
2018-08-24T05:20:00.816Z,19.94
2018-08-24T05:21:00.813Z,19.92
2018-08-24T05:22:00.815Z,19.89
2018-08-24T05:23:00.806Z,19.92
2018-08-24T05:24:00.803Z,19.98
2018-08-24T05:25:00.798Z,19.94
2018-08-24T05:26:00.801Z,19.95
2018-08-24T05:27:00.792Z,19.86
2018-08-24T05:28:00.812Z,19.95
2018-08-24T05:29:00.784Z,20.02
2018-08-24T05:30:00.787Z,20.13
2018-08-24T05:31:00.783Z,20.10
2018-08-24T05:32:00.773Z,20.12
2018-08-24T05:33:00.783Z,20.00
2018-08-24T05:34:00.766Z,20.04
2018-08-24T05:35:00.768Z,20.13
2018-08-24T05:36:00.766Z,20.16
2018-08-24T05:37:00.759Z,20.25
2018-08-24T05:38:00.758Z,20.13
2018-08-24T05:39:00.751Z,20.15
2018-08-24T05:40:00.751Z,20.15
2018-08-24T05:41:00.747Z,20.13
2018-08-24T05:42:00.739Z,20.10
2018-08-24T05:43:00.735Z,20.12
2018-08-24T05:44:00.736Z,20.15
2018-08-24T05:45:00.726Z,20.08
2018-08-24T05:46:00.723Z,20.17
2018-08-24T05:47:00.726Z,20.05
2018-08-24T05:48:00.718Z,20.13
2018-08-24T05:49:00.723Z,19.98
2018-08-24T05:50:00.714Z,20.04
2018-08-24T05:51:00.714Z,20.01
2018-08-24T05:52:00.706Z,20.08
2018-08-24T05:53:00.703Z,20.10
2018-08-24T05:54:00.699Z,20.16
2018-08-24T05:55:00.702Z,20.16
2018-08-24T05:56:00.693Z,20.17
2018-08-24T05:57:00.697Z,20.19
2018-08-24T05:58:00.687Z,20.08
2018-08-24T05:59:00.683Z,20.13
2018-08-24T06:00:00.684Z,20.15
2018-08-24T06:01:00.687Z,20.13
2018-08-24T06:02:00.678Z,20.15
2018-08-24T06:03:00.674Z,20.20
2018-08-24T06:04:00.669Z,20.13
2018-08-24T06:05:00.670Z,20.16
2018-08-24T06:06:00.666Z,20.07
2018-08-24T06:07:00.663Z,20.10
2018-08-24T06:08:00.654Z,20.04
2018-08-24T06:09:00.653Z,20.10
2018-08-24T06:10:00.653Z,20.13
2018-08-24T06:11:00.648Z,20.10
2018-08-24T06:12:00.645Z,20.13
2018-08-24T06:13:00.638Z,20.08
2018-08-24T06:14:00.634Z,20.07
2018-08-24T06:15:00.629Z,20.16
2018-08-24T06:16:00.718Z,20.08
2018-08-24T06:17:00.624Z,20.10
2018-08-24T06:18:00.624Z,20.13
2018-08-24T06:19:00.617Z,20.13
2018-08-24T06:20:00.619Z,20.02
2018-08-24T06:21:00.614Z,20.08
2018-08-24T06:22:00.622Z,19.98
2018-08-24T06:23:00.609Z,20.05
2018-08-24T06:24:00.601Z,20.10
2018-08-24T06:25:00.603Z,20.02
2018-08-24T06:26:00.941Z,20.05
2018-08-24T06:27:00.595Z,20.07
2018-08-24T06:28:00.702Z,20.12
2018-08-24T06:29:00.586Z,20.15
2018-08-24T06:30:00.696Z,20.20
2018-08-24T06:31:00.579Z,20.22
2018-08-24T06:32:00.576Z,20.16
2018-08-24T06:33:00.573Z,20.17
2018-08-24T06:34:00.570Z,20.17
2018-08-24T06:35:00.565Z,20.25
2018-08-24T06:36:00.570Z,20.26
2018-08-24T06:37:00.585Z,20.26
2018-08-24T06:38:00.558Z,20.31
2018-08-24T06:39:00.556Z,20.33
2018-08-24T06:40:00.550Z,20.35
2018-08-24T06:41:00.548Z,20.38
2018-08-24T06:42:00.620Z,20.48
2018-08-24T06:43:00.540Z,20.51
2018-08-24T06:44:00.543Z,20.56
2018-08-24T06:45:00.534Z,20.61
2018-08-24T06:46:00.529Z,20.69
2018-08-24T06:47:00.525Z,20.75
2018-08-24T06:48:00.523Z,20.78
2018-08-24T06:49:00.525Z,20.75
2018-08-24T06:50:00.517Z,20.72
2018-08-24T06:51:00.514Z,20.75
2018-08-24T06:52:00.511Z,20.76
2018-08-24T06:53:00.571Z,20.85
2018-08-24T06:54:00.648Z,20.91
2018-08-24T06:55:00.502Z,20.90
2018-08-24T06:56:00.503Z,20.94
2018-08-24T06:57:00.497Z,20.93
2018-08-24T06:58:00.496Z,20.97
2018-08-24T06:59:00.493Z,20.98
2018-08-24T07:00:00.489Z,20.94
2018-08-24T07:01:00.486Z,21.03
2018-08-24T07:02:00.488Z,20.94
2018-08-24T07:03:00.481Z,21.00
2018-08-24T07:04:00.476Z,20.98
2018-08-24T07:05:00.471Z,21.11
2018-08-24T07:06:00.470Z,21.13
2018-08-24T07:07:00.478Z,21.13
2018-08-24T07:08:00.465Z,21.16
2018-08-24T07:09:00.466Z,21.16
2018-08-24T07:10:00.465Z,21.27
2018-08-24T07:11:00.457Z,21.31
2018-08-24T07:12:00.456Z,21.30
2018-08-24T07:13:00.530Z,21.33
2018-08-24T07:14:00.455Z,21.38
2018-08-24T07:15:00.448Z,21.38
2018-08-24T07:16:00.448Z,21.36
2018-08-24T07:17:00.444Z,21.42
2018-08-24T07:18:00.440Z,21.48
2018-08-24T07:19:00.435Z,21.52
2018-08-24T07:20:00.435Z,21.40
2018-08-24T07:21:00.428Z,21.42
2018-08-24T07:22:00.428Z,21.38
2018-08-24T07:23:00.427Z,21.36
2018-08-24T07:24:00.421Z,21.42
2018-08-24T07:25:00.451Z,21.42
2018-08-24T07:26:00.422Z,21.42
2018-08-24T07:27:00.415Z,21.43
2018-08-24T07:28:00.412Z,21.38
2018-08-24T07:29:00.408Z,21.40
2018-08-24T07:30:00.408Z,21.43
2018-08-24T07:31:00.407Z,21.55
2018-08-24T07:32:00.408Z,21.63
2018-08-24T07:33:00.397Z,21.71
2018-08-24T07:34:00.398Z,21.74
2018-08-24T07:35:00.393Z,21.91
2018-08-24T07:36:00.391Z,21.99
2018-08-24T07:37:00.389Z,22.04
2018-08-24T07:38:00.391Z,22.09
2018-08-24T07:39:00.391Z,22.15
2018-08-24T07:40:00.386Z,22.21
2018-08-24T07:41:00.381Z,22.30
2018-08-24T07:42:00.530Z,22.27
2018-08-24T07:43:00.385Z,22.24
2018-08-24T07:44:00.380Z,22.17
2018-08-24T07:45:00.377Z,22.21
2018-08-24T07:46:00.371Z,22.24
2018-08-24T07:47:00.370Z,22.17
2018-08-24T07:48:00.368Z,22.17
2018-08-24T07:49:00.368Z,22.15
2018-08-24T07:50:00.366Z,22.15
2018-08-24T07:51:00.361Z,22.15
2018-08-24T07:52:00.360Z,22.15
2018-08-24T07:53:00.357Z,22.17
2018-08-24T07:54:00.352Z,22.17
2018-08-24T07:55:00.352Z,22.09
2018-08-24T07:56:00.353Z,22.17
2018-08-24T07:57:00.372Z,22.14
2018-08-24T07:58:00.350Z,22.11
2018-08-24T07:59:00.344Z,22.21
2018-08-24T08:00:00.341Z,22.20
2018-08-24T08:01:00.342Z,22.23
2018-08-24T08:02:00.342Z,22.33
2018-08-24T08:03:00.334Z,22.36
2018-08-24T08:04:00.334Z,22.48
2018-08-24T08:05:00.332Z,22.56
2018-08-24T08:06:00.328Z,22.66
2018-08-24T08:07:00.332Z,22.67
2018-08-24T08:08:00.332Z,22.78
2018-08-24T08:09:00.327Z,23.00
2018-08-24T08:10:00.325Z,23.07
2018-08-24T08:11:00.327Z,23.18
2018-08-24T08:12:00.324Z,23.31
2018-08-24T08:13:00.322Z,23.34
2018-08-24T08:14:00.317Z,23.23
2018-08-24T08:15:00.314Z,23.22
2018-08-24T08:16:00.318Z,23.23
2018-08-24T08:17:00.309Z,23.19
2018-08-24T08:18:00.317Z,23.19
2018-08-24T08:19:00.312Z,23.16
2018-08-24T08:20:00.367Z,23.26
2018-08-24T08:21:00.307Z,23.19
2018-08-24T08:22:00.306Z,23.29
2018-08-24T08:23:00.303Z,23.42
2018-08-24T08:24:00.307Z,23.62
2018-08-24T08:25:00.311Z,23.62
2018-08-24T08:26:00.303Z,23.82
2018-08-24T08:27:00.302Z,23.93
2018-08-24T08:28:00.300Z,24.02
2018-08-24T08:29:00.298Z,24.16
2018-08-24T08:30:00.301Z,24.30
2018-08-24T08:31:00.291Z,24.31
2018-08-24T08:32:00.298Z,24.31
2018-08-24T08:33:00.288Z,24.41
2018-08-24T08:34:00.287Z,24.55
2018-08-24T08:35:00.294Z,24.66
2018-08-24T08:36:00.291Z,24.68
2018-08-24T08:37:00.284Z,24.71
2018-08-24T08:38:00.288Z,24.84
2018-08-24T08:39:00.380Z,24.92
2018-08-24T08:40:00.284Z,24.93
2018-08-24T08:41:00.281Z,24.99
2018-08-24T08:42:00.282Z,25.02
2018-08-24T08:43:00.286Z,25.07
2018-08-24T08:44:00.283Z,25.11
2018-08-24T08:45:00.282Z,25.20
2018-08-24T08:46:00.278Z,25.24
2018-08-24T08:47:00.281Z,25.38
2018-08-24T08:48:00.279Z,25.39
2018-08-24T08:49:00.279Z,25.24
2018-08-24T08:50:00.279Z,25.17
2018-08-24T08:51:00.291Z,25.14
2018-08-24T08:52:00.278Z,25.23
2018-08-24T08:53:00.278Z,25.30
2018-08-24T08:54:00.282Z,25.27
2018-08-24T08:55:00.276Z,25.23
2018-08-24T08:56:00.282Z,25.31
2018-08-24T08:57:00.282Z,25.24
2018-08-24T08:58:00.282Z,25.08
2018-08-24T08:59:00.281Z,25.09
2018-08-24T09:00:00.281Z,24.99
2018-08-24T09:01:00.276Z,25.04
2018-08-24T09:02:00.277Z,25.02
2018-08-24T09:03:00.278Z,24.89
2018-08-24T09:04:00.279Z,24.84
2018-08-24T09:05:00.280Z,24.75
2018-08-24T09:06:00.292Z,24.79
2018-08-24T09:07:00.277Z,24.86
2018-08-24T09:08:00.281Z,24.97
2018-08-24T09:09:00.280Z,24.98
2018-08-24T09:10:00.276Z,24.93
2018-08-24T09:11:00.281Z,24.90
2018-08-24T09:12:00.277Z,24.75
2018-08-24T09:13:00.319Z,24.84
2018-08-24T09:14:00.280Z,24.99
2018-08-24T09:15:00.277Z,25.04
2018-08-24T09:16:00.277Z,25.08
2018-08-24T09:17:00.276Z,25.08
2018-08-24T09:18:00.278Z,25.19
2018-08-24T09:19:00.277Z,25.22
2018-08-24T09:20:00.279Z,25.29
2018-08-24T09:21:00.279Z,25.31
2018-08-24T09:22:00.279Z,25.26
2018-08-24T09:23:00.274Z,25.23
2018-08-24T09:24:00.274Z,25.27
2018-08-24T09:25:00.280Z,25.08
2018-08-24T09:26:00.277Z,25.01
2018-08-24T09:27:00.274Z,24.93
2018-08-24T09:28:00.281Z,24.77
2018-08-24T09:29:00.280Z,24.70
2018-08-24T09:30:00.277Z,24.70
2018-08-24T09:31:00.275Z,24.59
2018-08-24T09:32:00.277Z,24.59
2018-08-24T09:33:00.451Z,24.53
2018-08-24T09:34:00.278Z,24.70
2018-08-24T09:35:00.278Z,24.90
2018-08-24T09:36:00.275Z,25.01
2018-08-24T09:37:00.272Z,25.12
2018-08-24T09:38:00.338Z,25.17
2018-08-24T09:39:00.273Z,25.36
2018-08-24T09:40:00.278Z,25.46
2018-08-24T09:41:00.275Z,25.51
2018-08-24T09:42:00.279Z,25.54
2018-08-24T09:43:00.285Z,25.79
2018-08-24T09:44:00.277Z,25.72
2018-08-24T09:45:00.279Z,25.86
2018-08-24T09:46:00.275Z,26.00
2018-08-24T09:47:00.273Z,26.04
2018-08-24T09:48:00.278Z,25.97
2018-08-24T09:49:00.282Z,25.89
2018-08-24T09:50:00.278Z,25.76
2018-08-24T09:51:00.273Z,25.72
2018-08-24T09:52:00.279Z,25.71
2018-08-24T09:53:00.273Z,25.61
2018-08-24T09:54:00.274Z,25.66
2018-08-24T09:55:00.276Z,25.54
2018-08-24T09:56:00.279Z,25.49
2018-08-24T09:57:00.357Z,25.39
2018-08-24T09:58:00.276Z,25.24
2018-08-24T09:59:00.278Z,25.11
2018-08-24T10:00:00.276Z,25.07
2018-08-24T10:01:00.278Z,24.97
2018-08-24T10:02:00.281Z,24.94
2018-08-24T10:03:00.280Z,24.83
2018-08-24T10:04:00.282Z,24.80
2018-08-24T10:05:00.276Z,24.83
2018-08-24T10:06:00.275Z,24.82
2018-08-24T10:07:00.282Z,24.74
2018-08-24T10:08:00.276Z,24.79
2018-08-24T10:09:00.280Z,24.68
2018-08-24T10:10:00.282Z,24.63
2018-08-24T10:11:00.274Z,24.70
2018-08-24T10:12:00.275Z,24.64
2018-08-24T10:13:00.281Z,24.56
2018-08-24T10:14:00.274Z,24.60
2018-08-24T10:15:00.278Z,24.84
2018-08-24T10:16:00.280Z,25.02
2018-08-24T10:17:00.275Z,25.07
2018-08-24T10:18:00.277Z,25.08
2018-08-24T10:19:00.275Z,25.24
2018-08-24T10:20:00.279Z,25.08
2018-08-24T10:21:00.278Z,25.22
2018-08-24T10:22:00.280Z,25.53
2018-08-24T10:23:00.303Z,25.61
2018-08-24T10:24:00.281Z,25.72
2018-08-24T10:25:00.273Z,25.86
2018-08-24T10:26:00.275Z,26.11
2018-08-24T10:27:00.277Z,26.28
2018-08-24T10:28:00.274Z,26.41
2018-08-24T10:29:00.278Z,26.49
2018-08-24T10:30:00.278Z,26.46
2018-08-24T10:31:00.276Z,26.64
2018-08-24T10:32:00.276Z,26.64
2018-08-24T10:33:00.279Z,26.81
2018-08-24T10:34:00.278Z,26.76
2018-08-24T10:35:00.275Z,26.75
2018-08-24T10:36:00.278Z,26.94
2018-08-24T10:37:00.280Z,26.96
2018-08-24T10:38:00.282Z,26.93
2018-08-24T10:39:00.298Z,27.15
2018-08-24T10:40:00.280Z,27.06
2018-08-24T10:41:00.323Z,27.06
2018-08-24T10:42:00.285Z,27.16
2018-08-24T10:43:00.282Z,27.18
2018-08-24T10:44:00.285Z,27.24
2018-08-24T10:45:00.283Z,27.23
2018-08-24T10:46:00.286Z,27.16
2018-08-24T10:47:00.287Z,27.15
2018-08-24T10:48:00.288Z,27.09
2018-08-24T10:49:00.286Z,26.90
2018-08-24T10:50:00.290Z,26.51
2018-08-24T10:51:00.291Z,26.36
2018-08-24T10:52:00.293Z,26.13
2018-08-24T10:53:00.293Z,25.85
2018-08-24T10:54:00.313Z,25.74
2018-08-24T10:55:00.399Z,25.66
2018-08-24T10:56:00.366Z,25.63
2018-08-24T10:57:00.298Z,25.54
2018-08-24T10:58:00.295Z,25.36
2018-08-24T10:59:00.305Z,25.36
2018-08-24T11:00:00.299Z,25.38
2018-08-24T11:01:00.298Z,25.26
2018-08-24T11:02:00.334Z,25.24
2018-08-24T11:03:00.303Z,25.26
2018-08-24T11:04:00.305Z,25.23
2018-08-24T11:05:00.299Z,25.08
2018-08-24T11:06:00.299Z,25.01
2018-08-24T11:07:00.300Z,24.84
2018-08-24T11:08:00.301Z,24.74
2018-08-24T11:09:00.304Z,24.82
2018-08-24T11:10:00.303Z,24.92
2018-08-24T11:11:00.306Z,24.74
2018-08-24T11:12:00.304Z,24.79
2018-08-24T11:13:00.305Z,24.67
2018-08-24T11:14:00.304Z,24.68
2018-08-24T11:15:00.300Z,24.42
2018-08-24T11:16:00.302Z,24.36
2018-08-24T11:17:00.413Z,24.45
2018-08-24T11:18:00.299Z,24.49
2018-08-24T11:19:00.297Z,24.46
2018-08-24T11:20:00.305Z,24.26
2018-08-24T11:21:00.301Z,24.34
2018-08-24T11:22:00.298Z,24.27
2018-08-24T11:23:00.311Z,24.44
2018-08-24T11:24:00.301Z,24.53
2018-08-24T11:25:00.296Z,24.53
2018-08-24T11:26:00.330Z,24.59
2018-08-24T11:27:00.424Z,24.70
2018-08-24T11:28:00.297Z,24.74
2018-08-24T11:29:00.296Z,24.86
2018-08-24T11:30:00.294Z,24.86
2018-08-24T11:31:00.293Z,24.82
2018-08-24T11:32:00.293Z,24.71
2018-08-24T11:33:00.292Z,24.79
2018-08-24T11:34:00.294Z,24.93
2018-08-24T11:35:00.295Z,25.20
2018-08-24T11:36:00.368Z,25.38
2018-08-24T11:37:00.292Z,25.56
2018-08-24T11:38:00.294Z,25.45
2018-08-24T11:39:00.290Z,25.44
2018-08-24T11:40:00.293Z,25.36
2018-08-24T11:41:00.291Z,25.44
2018-08-24T11:42:00.328Z,25.35
2018-08-24T11:43:00.289Z,25.44
2018-08-24T11:44:00.289Z,25.45
2018-08-24T11:45:00.288Z,25.39
2018-08-24T11:46:00.291Z,25.71
2018-08-24T11:47:00.293Z,25.76
2018-08-24T11:48:00.370Z,25.96
2018-08-24T11:49:00.287Z,26.13
2018-08-24T11:50:00.293Z,25.97
2018-08-24T11:51:00.289Z,25.74
2018-08-24T11:52:00.297Z,25.44
2018-08-24T11:53:00.286Z,25.41
2018-08-24T11:54:00.298Z,25.31
2018-08-24T11:55:00.288Z,25.41
2018-08-24T11:56:00.303Z,25.60
2018-08-24T11:57:00.292Z,25.90
2018-08-24T11:58:00.289Z,26.03
2018-08-24T11:59:00.291Z,26.16
2018-08-24T12:00:00.289Z,26.27
2018-08-24T12:01:00.286Z,25.96
2018-08-24T12:02:00.310Z,25.85
2018-08-24T12:03:00.292Z,25.64
2018-08-24T12:04:00.285Z,25.54
2018-08-24T12:05:00.285Z,25.66
2018-08-24T12:06:00.294Z,25.72
2018-08-24T12:07:00.286Z,25.72
2018-08-24T12:08:00.362Z,25.71
2018-08-24T12:09:00.288Z,25.53
2018-08-24T12:10:00.285Z,25.71
2018-08-24T12:11:00.290Z,25.66
2018-08-24T12:12:00.352Z,25.64
2018-08-24T12:13:00.293Z,25.31
2018-08-24T12:14:00.338Z,25.39
2018-08-24T12:15:00.287Z,25.36
2018-08-24T12:16:00.292Z,25.41
2018-08-24T12:17:00.287Z,25.35
2018-08-24T12:18:00.288Z,25.42
2018-08-24T12:19:00.292Z,25.57
2018-08-24T12:20:00.287Z,25.48
2018-08-24T12:21:00.289Z,25.66
2018-08-24T12:22:00.286Z,25.69
2018-08-24T12:23:00.285Z,25.67
2018-08-24T12:24:00.291Z,25.60
2018-08-24T12:25:00.284Z,25.75
2018-08-24T12:26:00.287Z,25.75
2018-08-24T12:27:00.313Z,25.75
2018-08-24T12:28:00.291Z,25.90
2018-08-24T12:29:00.290Z,25.96
2018-08-24T12:30:00.291Z,26.03
2018-08-24T12:31:00.389Z,25.89
2018-08-24T12:32:00.289Z,25.96
2018-08-24T12:33:00.290Z,26.04
2018-08-24T12:34:00.290Z,26.17
2018-08-24T12:35:00.287Z,26.23
2018-08-24T12:36:00.292Z,25.98
2018-08-24T12:37:00.283Z,26.19
2018-08-24T12:38:00.330Z,26.21
2018-08-24T12:39:00.292Z,26.32
2018-08-24T12:40:00.300Z,26.41
2018-08-24T12:41:00.285Z,26.41
2018-08-24T12:42:00.284Z,26.57
2018-08-24T12:43:00.287Z,26.64
2018-08-24T12:44:00.289Z,26.29
2018-08-24T12:45:00.287Z,26.36
2018-08-24T12:46:00.288Z,26.54
2018-08-24T12:47:00.288Z,26.66
2018-08-24T12:48:00.287Z,26.59
2018-08-24T12:49:00.285Z,26.20
2018-08-24T12:50:00.287Z,25.74
2018-08-24T12:51:00.299Z,25.69
2018-08-24T12:52:00.325Z,25.54